sensor_id;sensor_type;location;lat;lon;timestamp;P1;durP1;ratioP1;P2;durP2;ratioP2
74229;SDS011;62589;12.568;99.958;2023-10-19T00:00:39;8.70;;;5.93;;
74229;SDS011;62589;12.568;99.958;2023-10-19T00:03:12;6.35;;;5.40;;
74229;SDS011;62589;12.568;99.958;2023-10-19T00:05:39;6.30;;;5.15;;
74229;SDS011;62589;12.568;99.958;2023-10-19T00:08:07;7.10;;;5.55;;
74229;SDS011;62589;12.568;99.958;2023-10-19T00:10:48;7.03;;;5.22;;
74229;SDS011;62589;12.568;99.958;2023-10-19T00:13:28;7.43;;;5.25;;
74229;SDS011;62589;12.568;99.958;2023-10-19T00:15:55;5.68;;;5.10;;
74229;SDS011;62589;12.568;99.958;2023-10-19T00:18:23;7.97;;;4.97;;
74229;SDS011;62589;12.568;99.958;2023-10-19T00:20:51;6.93;;;5.20;;
74229;SDS011;62589;12.568;99.958;2023-10-19T00:23:39;7.35;;;4.90;;
74229;SDS011;62589;12.568;99.958;2023-10-19T00:26:05;6.28;;;5.40;;
74229;SDS011;62589;12.568;99.958;2023-10-19T00:28:44;14.48;;;11.50;;
74229;SDS011;62589;12.568;99.958;2023-10-19T00:31:24;15.70;;;11.48;;
74229;SDS011;62589;12.568;99.958;2023-10-19T00:33:54;11.93;;;8.18;;
74229;SDS011;62589;12.568;99.958;2023-10-19T00:36:21;6.22;;;5.50;;
74229;SDS011;62589;12.568;99.958;2023-10-19T00:38:49;6.05;;;5.30;;
74229;SDS011;62589;12.568;99.958;2023-10-19T00:41:27;5.65;;;5.10;;
74229;SDS011;62589;12.568;99.958;2023-10-19T00:43:57;6.60;;;5.00;;
74229;SDS011;62589;12.568;99.958;2023-10-19T00:46:36;6.07;;;5.47;;
74229;SDS011;62589;12.568;99.958;2023-10-19T00:49:09;6.93;;;5.03;;
74229;SDS011;62589;12.568;99.958;2023-10-19T00:51:40;5.35;;;4.85;;
74229;SDS011;62589;12.568;99.958;2023-10-19T00:54:41;8.13;;;5.35;;
74229;SDS011;62589;12.568;99.958;2023-10-19T00:57:12;7.47;;;5.63;;
74229;SDS011;62589;12.568;99.958;2023-10-19T00:59:39;6.70;;;5.40;;
74229;SDS011;62589;12.568;99.958;2023-10-19T01:02:20;5.88;;;4.82;;
74229;SDS011;62589;12.568;99.958;2023-10-19T01:04:54;6.20;;;5.60;;
74229;SDS011;62589;12.568;99.958;2023-10-19T01:07:25;7.75;;;5.00;;
74229;SDS011;62589;12.568;99.958;2023-10-19T01:10:10;5.75;;;4.90;;
74229;SDS011;62589;12.568;99.958;2023-10-19T01:12:44;5.95;;;5.25;;
74229;SDS011;62589;12.568;99.958;2023-10-19T01:15:12;5.03;;;4.53;;
74229;SDS011;62589;12.568;99.958;2023-10-19T01:17:40;8.63;;;5.35;;
74229;SDS011;62589;12.568;99.958;2023-10-19T01:20:13;6.45;;;4.93;;
74229;SDS011;62589;12.568;99.958;2023-10-19T01:22:47;9.13;;;5.10;;
74229;SDS011;62589;12.568;99.958;2023-10-19T01:25:50;6.88;;;5.43;;
74229;SDS011;62589;12.568;99.958;2023-10-19T01:28:25;8.13;;;5.03;;
74229;SDS011;62589;12.568;99.958;2023-10-19T01:31:07;6.43;;;5.15;;
74229;SDS011;62589;12.568;99.958;2023-10-19T01:33:47;6.15;;;5.18;;
74229;SDS011;62589;12.568;99.958;2023-10-19T01:36:15;7.28;;;5.65;;
74229;SDS011;62589;12.568;99.958;2023-10-19T01:38:48;7.20;;;5.72;;
74229;SDS011;62589;12.568;99.958;2023-10-19T01:41:17;6.95;;;5.75;;
74229;SDS011;62589;12.568;99.958;2023-10-19T01:43:45;6.45;;;5.63;;
74229;SDS011;62589;12.568;99.958;2023-10-19T01:46:14;7.00;;;5.93;;
74229;SDS011;62589;12.568;99.958;2023-10-19T01:49:11;8.10;;;6.15;;
74229;SDS011;62589;12.568;99.958;2023-10-19T01:51:37;8.00;;;5.97;;
74229;SDS011;62589;12.568;99.958;2023-10-19T01:54:05;9.30;;;6.20;;
74229;SDS011;62589;12.568;99.958;2023-10-19T01:56:32;8.02;;;6.85;;
74229;SDS011;62589;12.568;99.958;2023-10-19T01:59:01;10.13;;;7.03;;
74229;SDS011;62589;12.568;99.958;2023-10-19T02:01:29;9.07;;;7.35;;
74229;SDS011;62589;12.568;99.958;2023-10-19T02:04:00;8.38;;;6.95;;
74229;SDS011;62589;12.568;99.958;2023-10-19T02:06:31;9.10;;;7.25;;
74229;SDS011;62589;12.568;99.958;2023-10-19T02:09:12;8.35;;;7.30;;
74229;SDS011;62589;12.568;99.958;2023-10-19T02:11:56;8.23;;;7.00;;
74229;SDS011;62589;12.568;99.958;2023-10-19T02:14:23;7.25;;;6.47;;
74229;SDS011;62589;12.568;99.958;2023-10-19T02:16:51;11.88;;;7.38;;
74229;SDS011;62589;12.568;99.958;2023-10-19T02:19:20;8.35;;;7.00;;
74229;SDS011;62589;12.568;99.958;2023-10-19T02:21:53;9.82;;;6.82;;
74229;SDS011;62589;12.568;99.958;2023-10-19T02:24:24;7.65;;;6.85;;
74229;SDS011;62589;12.568;99.958;2023-10-19T02:26:51;9.25;;;6.60;;
74229;SDS011;62589;12.568;99.958;2023-10-19T02:29:20;11.80;;;7.65;;
74229;SDS011;62589;12.568;99.958;2023-10-19T02:31:47;8.77;;;6.80;;
74229;SDS011;62589;12.568;99.958;2023-10-19T02:34:15;8.43;;;6.95;;
74229;SDS011;62589;12.568;99.958;2023-10-19T02:36:42;8.23;;;6.75;;
74229;SDS011;62589;12.568;99.958;2023-10-19T02:39:10;9.27;;;7.07;;
74229;SDS011;62589;12.568;99.958;2023-10-19T02:41:43;10.88;;;7.75;;
74229;SDS011;62589;12.568;99.958;2023-10-19T02:44:17;8.35;;;7.20;;
74229;SDS011;62589;12.568;99.958;2023-10-19T02:49:12;9.10;;;7.53;;
74229;SDS011;62589;12.568;99.958;2023-10-19T02:51:44;8.25;;;7.45;;
74229;SDS011;62589;12.568;99.958;2023-10-19T02:54:11;10.68;;;8.25;;
74229;SDS011;62589;12.568;99.958;2023-10-19T02:56:46;9.43;;;7.68;;
74229;SDS011;62589;12.568;99.958;2023-10-19T02:59:15;12.48;;;8.52;;
74229;SDS011;62589;12.568;99.958;2023-10-19T03:01:47;10.75;;;7.68;;
74229;SDS011;62589;12.568;99.958;2023-10-19T03:04:15;9.18;;;7.93;;
74229;SDS011;62589;12.568;99.958;2023-10-19T03:06:41;9.63;;;8.02;;
74229;SDS011;62589;12.568;99.958;2023-10-19T03:09:09;8.90;;;8.00;;
74229;SDS011;62589;12.568;99.958;2023-10-19T03:11:47;13.60;;;9.23;;
74229;SDS011;62589;12.568;99.958;2023-10-19T03:14:40;10.90;;;9.13;;
74229;SDS011;62589;12.568;99.958;2023-10-19T03:17:07;10.85;;;8.35;;
74229;SDS011;62589;12.568;99.958;2023-10-19T03:19:34;8.65;;;7.60;;
74229;SDS011;62589;12.568;99.958;2023-10-19T03:22:00;8.73;;;7.90;;
74229;SDS011;62589;12.568;99.958;2023-10-19T03:24:27;11.90;;;8.10;;
74229;SDS011;62589;12.568;99.958;2023-10-19T03:27:03;8.98;;;7.75;;
74229;SDS011;62589;12.568;99.958;2023-10-19T03:29:50;8.90;;;8.00;;
74229;SDS011;62589;12.568;99.958;2023-10-19T03:32:21;10.27;;;8.73;;
74229;SDS011;62589;12.568;99.958;2023-10-19T03:34:54;11.02;;;8.70;;
74229;SDS011;62589;12.568;99.958;2023-10-19T03:37:22;10.02;;;8.98;;
74229;SDS011;62589;12.568;99.958;2023-10-19T03:39:50;10.23;;;8.95;;
74229;SDS011;62589;12.568;99.958;2023-10-19T03:42:17;10.98;;;9.45;;
74229;SDS011;62589;12.568;99.958;2023-10-19T03:44:46;10.18;;;9.07;;
74229;SDS011;62589;12.568;99.958;2023-10-19T03:47:12;10.25;;;9.23;;
74229;SDS011;62589;12.568;99.958;2023-10-19T03:49:44;9.90;;;8.88;;
74229;SDS011;62589;12.568;99.958;2023-10-19T03:52:12;10.68;;;8.77;;
74229;SDS011;62589;12.568;99.958;2023-10-19T03:54:39;10.40;;;9.02;;
74229;SDS011;62589;12.568;99.958;2023-10-19T03:57:07;11.82;;;8.73;;
74229;SDS011;62589;12.568;99.958;2023-10-19T03:59:55;10.40;;;9.30;;
74229;SDS011;62589;12.568;99.958;2023-10-19T04:02:23;11.00;;;9.40;;
74229;SDS011;62589;12.568;99.958;2023-10-19T04:04:50;11.50;;;9.68;;
74229;SDS011;62589;12.568;99.958;2023-10-19T04:07:17;11.63;;;10.15;;
74229;SDS011;62589;12.568;99.958;2023-10-19T04:09:50;15.32;;;10.55;;
74229;SDS011;62589;12.568;99.958;2023-10-19T04:12:30;14.85;;;10.10;;
74229;SDS011;62589;12.568;99.958;2023-10-19T04:14:57;15.05;;;10.57;;
74229;SDS011;62589;12.568;99.958;2023-10-19T04:17:36;15.15;;;11.48;;
74229;SDS011;62589;12.568;99.958;2023-10-19T04:20:08;12.93;;;11.43;;
74229;SDS011;62589;12.568;99.958;2023-10-19T04:22:55;15.75;;;12.90;;
74229;SDS011;62589;12.568;99.958;2023-10-19T04:25:35;14.73;;;12.88;;
74229;SDS011;62589;12.568;99.958;2023-10-19T04:28:02;17.45;;;14.18;;
74229;SDS011;62589;12.568;99.958;2023-10-19T04:30:30;16.58;;;13.32;;
74229;SDS011;62589;12.568;99.958;2023-10-19T04:32:58;14.20;;;12.60;;
74229;SDS011;62589;12.568;99.958;2023-10-19T04:35:27;17.35;;;13.30;;
74229;SDS011;62589;12.568;99.958;2023-10-19T04:37:59;18.27;;;13.90;;
74229;SDS011;62589;12.568;99.958;2023-10-19T04:40:26;15.60;;;12.90;;
74229;SDS011;62589;12.568;99.958;2023-10-19T04:42:53;15.32;;;13.18;;
74229;SDS011;62589;12.568;99.958;2023-10-19T04:45:20;16.63;;;13.18;;
74229;SDS011;62589;12.568;99.958;2023-10-19T04:47:49;15.50;;;12.50;;
74229;SDS011;62589;12.568;99.958;2023-10-19T04:50:20;16.83;;;13.30;;
74229;SDS011;62589;12.568;99.958;2023-10-19T04:52:46;16.67;;;13.38;;
74229;SDS011;62589;12.568;99.958;2023-10-19T04:55:13;15.05;;;11.80;;
74229;SDS011;62589;12.568;99.958;2023-10-19T04:57:39;17.00;;;13.23;;
74229;SDS011;62589;12.568;99.958;2023-10-19T05:00:06;14.80;;;12.50;;
74229;SDS011;62589;12.568;99.958;2023-10-19T05:02:38;14.82;;;12.52;;
74229;SDS011;62589;12.568;99.958;2023-10-19T05:05:05;16.38;;;13.57;;
74229;SDS011;62589;12.568;99.958;2023-10-19T05:07:31;16.20;;;13.35;;
74229;SDS011;62589;12.568;99.958;2023-10-19T05:09:59;16.60;;;14.20;;
74229;SDS011;62589;12.568;99.958;2023-10-19T05:12:25;15.70;;;13.75;;
74229;SDS011;62589;12.568;99.958;2023-10-19T05:14:51;19.60;;;14.70;;
74229;SDS011;62589;12.568;99.958;2023-10-19T05:17:18;17.30;;;13.98;;
74229;SDS011;62589;12.568;99.958;2023-10-19T05:19:46;16.58;;;13.20;;
74229;SDS011;62589;12.568;99.958;2023-10-19T05:22:12;15.93;;;13.63;;
74229;SDS011;62589;12.568;99.958;2023-10-19T05:24:39;19.70;;;13.40;;
74229;SDS011;62589;12.568;99.958;2023-10-19T05:27:05;18.10;;;14.68;;
74229;SDS011;62589;12.568;99.958;2023-10-19T05:29:35;18.95;;;15.77;;
74229;SDS011;62589;12.568;99.958;2023-10-19T05:32:02;17.25;;;14.65;;
74229;SDS011;62589;12.568;99.958;2023-10-19T05:34:29;18.25;;;14.68;;
74229;SDS011;62589;12.568;99.958;2023-10-19T05:36:57;20.95;;;15.90;;
74229;SDS011;62589;12.568;99.958;2023-10-19T05:39:28;23.73;;;16.10;;
74229;SDS011;62589;12.568;99.958;2023-10-19T05:41:56;20.95;;;16.25;;
74229;SDS011;62589;12.568;99.958;2023-10-19T05:44:27;20.27;;;16.38;;
74229;SDS011;62589;12.568;99.958;2023-10-19T05:46:55;20.90;;;15.90;;
74229;SDS011;62589;12.568;99.958;2023-10-19T05:49:23;20.52;;;15.15;;
74229;SDS011;62589;12.568;99.958;2023-10-19T05:51:50;17.42;;;14.98;;
74229;SDS011;62589;12.568;99.958;2023-10-19T05:54:17;19.65;;;15.52;;
74229;SDS011;62589;12.568;99.958;2023-10-19T05:56:44;19.50;;;14.43;;
74229;SDS011;62589;12.568;99.958;2023-10-19T05:59:11;17.27;;;14.57;;
74229;SDS011;62589;12.568;99.958;2023-10-19T06:01:38;19.23;;;14.55;;
74229;SDS011;62589;12.568;99.958;2023-10-19T06:04:06;17.05;;;14.30;;
74229;SDS011;62589;12.568;99.958;2023-10-19T06:06:33;16.42;;;14.38;;
74229;SDS011;62589;12.568;99.958;2023-10-19T06:08:59;14.43;;;12.90;;
74229;SDS011;62589;12.568;99.958;2023-10-19T06:11:30;17.70;;;14.95;;
74229;SDS011;62589;12.568;99.958;2023-10-19T06:13:57;17.05;;;14.32;;
74229;SDS011;62589;12.568;99.958;2023-10-19T06:16:25;16.80;;;13.82;;
74229;SDS011;62589;12.568;99.958;2023-10-19T06:18:51;15.20;;;12.70;;
74229;SDS011;62589;12.568;99.958;2023-10-19T06:21:17;14.02;;;11.95;;
74229;SDS011;62589;12.568;99.958;2023-10-19T06:23:45;13.80;;;12.38;;
74229;SDS011;62589;12.568;99.958;2023-10-19T06:26:11;14.15;;;11.50;;
74229;SDS011;62589;12.568;99.958;2023-10-19T06:28:38;15.05;;;11.52;;
74229;SDS011;62589;12.568;99.958;2023-10-19T06:31:06;14.07;;;11.75;;
74229;SDS011;62589;12.568;99.958;2023-10-19T06:33:32;13.88;;;11.85;;
74229;SDS011;62589;12.568;99.958;2023-10-19T06:35:59;15.57;;;12.15;;
74229;SDS011;62589;12.568;99.958;2023-10-19T06:38:29;13.82;;;11.30;;
74229;SDS011;62589;12.568;99.958;2023-10-19T06:40:57;13.75;;;10.98;;
74229;SDS011;62589;12.568;99.958;2023-10-19T06:43:24;11.82;;;10.57;;
74229;SDS011;62589;12.568;99.958;2023-10-19T06:45:54;13.18;;;10.15;;
74229;SDS011;62589;12.568;99.958;2023-10-19T06:48:21;11.60;;;10.40;;
74229;SDS011;62589;12.568;99.958;2023-10-19T06:50:47;11.18;;;9.98;;
74229;SDS011;62589;12.568;99.958;2023-10-19T06:53:14;13.27;;;10.57;;
74229;SDS011;62589;12.568;99.958;2023-10-19T06:55:40;12.55;;;10.88;;
74229;SDS011;62589;12.568;99.958;2023-10-19T06:58:06;11.50;;;10.30;;
74229;SDS011;62589;12.568;99.958;2023-10-19T07:00:34;11.23;;;9.90;;
74229;SDS011;62589;12.568;99.958;2023-10-19T07:03:07;14.05;;;9.93;;
74229;SDS011;62589;12.568;99.958;2023-10-19T07:05:34;12.88;;;10.88;;
74229;SDS011;62589;12.568;99.958;2023-10-19T07:08:00;11.95;;;9.82;;
74229;SDS011;62589;12.568;99.958;2023-10-19T07:10:28;14.07;;;10.38;;
74229;SDS011;62589;12.568;99.958;2023-10-19T07:12:55;12.00;;;9.75;;
74229;SDS011;62589;12.568;99.958;2023-10-19T07:15:23;11.93;;;9.95;;
74229;SDS011;62589;12.568;99.958;2023-10-19T07:17:53;11.07;;;9.93;;
74229;SDS011;62589;12.568;99.958;2023-10-19T07:20:20;12.70;;;10.68;;
74229;SDS011;62589;12.568;99.958;2023-10-19T07:23:02;11.48;;;10.27;;
74229;SDS011;62589;12.568;99.958;2023-10-19T07:25:49;11.70;;;10.25;;
74229;SDS011;62589;12.568;99.958;2023-10-19T07:28:25;11.55;;;10.00;;
74229;SDS011;62589;12.568;99.958;2023-10-19T07:30:52;12.63;;;10.35;;
74229;SDS011;62589;12.568;99.958;2023-10-19T07:33:19;12.25;;;9.60;;
74229;SDS011;62589;12.568;99.958;2023-10-19T07:35:46;12.13;;;10.15;;
74229;SDS011;62589;12.568;99.958;2023-10-19T07:38:17;10.68;;;9.57;;
74229;SDS011;62589;12.568;99.958;2023-10-19T07:40:46;14.20;;;9.80;;
74229;SDS011;62589;12.568;99.958;2023-10-19T07:43:12;11.90;;;10.65;;
74229;SDS011;62589;12.568;99.958;2023-10-19T07:45:39;10.70;;;9.63;;
74229;SDS011;62589;12.568;99.958;2023-10-19T07:48:06;12.13;;;10.45;;
74229;SDS011;62589;12.568;99.958;2023-10-19T07:50:33;11.85;;;10.23;;
74229;SDS011;62589;12.568;99.958;2023-10-19T07:53:00;11.90;;;10.68;;
74229;SDS011;62589;12.568;99.958;2023-10-19T07:55:27;10.93;;;9.77;;
74229;SDS011;62589;12.568;99.958;2023-10-19T07:57:54;13.00;;;10.40;;
74229;SDS011;62589;12.568;99.958;2023-10-19T08:00:21;13.63;;;10.63;;
74229;SDS011;62589;12.568;99.958;2023-10-19T08:02:48;12.25;;;10.95;;
74229;SDS011;62589;12.568;99.958;2023-10-19T08:05:17;12.00;;;10.70;;
74229;SDS011;62589;12.568;99.958;2023-10-19T08:07:46;11.68;;;10.23;;
74229;SDS011;62589;12.568;99.958;2023-10-19T08:10:14;12.63;;;10.43;;
74229;SDS011;62589;12.568;99.958;2023-10-19T08:12:42;13.13;;;11.00;;
74229;SDS011;62589;12.568;99.958;2023-10-19T08:15:13;13.73;;;11.05;;
74229;SDS011;62589;12.568;99.958;2023-10-19T08:17:41;13.75;;;11.60;;
74229;SDS011;62589;12.568;99.958;2023-10-19T08:20:09;13.90;;;11.15;;
74229;SDS011;62589;12.568;99.958;2023-10-19T08:23:03;13.27;;;10.80;;
74229;SDS011;62589;12.568;99.958;2023-10-19T08:25:31;14.90;;;11.25;;
74229;SDS011;62589;12.568;99.958;2023-10-19T08:27:57;17.08;;;14.10;;
74229;SDS011;62589;12.568;99.958;2023-10-19T08:30:24;15.43;;;11.40;;
74229;SDS011;62589;12.568;99.958;2023-10-19T08:32:51;9.80;;;8.57;;
74229;SDS011;62589;12.568;99.958;2023-10-19T08:35:19;10.40;;;7.97;;
74229;SDS011;62589;12.568;99.958;2023-10-19T08:37:50;8.63;;;7.73;;
74229;SDS011;62589;12.568;99.958;2023-10-19T08:40:18;8.90;;;7.57;;
74229;SDS011;62589;12.568;99.958;2023-10-19T08:42:46;8.93;;;8.02;;
74229;SDS011;62589;12.568;99.958;2023-10-19T08:45:16;11.43;;;8.70;;
74229;SDS011;62589;12.568;99.958;2023-10-19T08:47:53;10.70;;;8.63;;
74229;SDS011;62589;12.568;99.958;2023-10-19T08:50:28;12.52;;;8.40;;
74229;SDS011;62589;12.568;99.958;2023-10-19T08:53:03;9.95;;;8.60;;
74229;SDS011;62589;12.568;99.958;2023-10-19T08:55:34;9.93;;;8.13;;
74229;SDS011;62589;12.568;99.958;2023-10-19T08:58:01;8.70;;;7.30;;
74229;SDS011;62589;12.568;99.958;2023-10-19T09:00:42;9.82;;;7.18;;
74229;SDS011;62589;12.568;99.958;2023-10-19T09:03:12;8.90;;;6.38;;
74229;SDS011;62589;12.568;99.958;2023-10-19T09:05:39;8.02;;;5.95;;
74229;SDS011;62589;12.568;99.958;2023-10-19T09:08:07;7.28;;;6.18;;
74229;SDS011;62589;12.568;99.958;2023-10-19T09:10:35;6.97;;;5.70;;
74229;SDS011;62589;12.568;99.958;2023-10-19T09:13:05;7.15;;;6.10;;
74229;SDS011;62589;12.568;99.958;2023-10-19T09:15:35;7.88;;;6.60;;
74229;SDS011;62589;12.568;99.958;2023-10-19T09:18:13;7.93;;;6.68;;
74229;SDS011;62589;12.568;99.958;2023-10-19T09:20:41;9.15;;;7.22;;
74229;SDS011;62589;12.568;99.958;2023-10-19T09:23:18;8.18;;;7.15;;
74229;SDS011;62589;12.568;99.958;2023-10-19T09:25:49;12.70;;;8.00;;
74229;SDS011;62589;12.568;99.958;2023-10-19T09:28:18;10.27;;;7.45;;
74229;SDS011;62589;12.568;99.958;2023-10-19T09:30:45;8.52;;;7.45;;
74229;SDS011;62589;12.568;99.958;2023-10-19T09:33:13;11.10;;;7.70;;
74229;SDS011;62589;12.568;99.958;2023-10-19T09:35:43;13.00;;;7.80;;
74229;SDS011;62589;12.568;99.958;2023-10-19T09:38:17;11.60;;;8.50;;
74229;SDS011;62589;12.568;99.958;2023-10-19T09:40:53;8.88;;;7.72;;
74229;SDS011;62589;12.568;99.958;2023-10-19T09:43:30;8.50;;;7.25;;
74229;SDS011;62589;12.568;99.958;2023-10-19T09:46:12;8.73;;;7.40;;
74229;SDS011;62589;12.568;99.958;2023-10-19T09:48:47;8.45;;;7.55;;
74229;SDS011;62589;12.568;99.958;2023-10-19T09:51:14;9.82;;;8.70;;
74229;SDS011;62589;12.568;99.958;2023-10-19T09:53:43;10.63;;;8.30;;
74229;SDS011;62589;12.568;99.958;2023-10-19T09:56:15;8.90;;;8.00;;
74229;SDS011;62589;12.568;99.958;2023-10-19T09:58:48;11.15;;;9.45;;
74229;SDS011;62589;12.568;99.958;2023-10-19T10:01:19;13.63;;;9.77;;
74229;SDS011;62589;12.568;99.958;2023-10-19T10:03:49;11.80;;;10.00;;
74229;SDS011;62589;12.568;99.958;2023-10-19T10:06:29;11.95;;;10.60;;
74229;SDS011;62589;12.568;99.958;2023-10-19T10:09:19;11.45;;;10.20;;
74229;SDS011;62589;12.568;99.958;2023-10-19T10:11:54;11.38;;;9.52;;
74229;SDS011;62589;12.568;99.958;2023-10-19T10:14:22;11.63;;;10.07;;
74229;SDS011;62589;12.568;99.958;2023-10-19T10:17:02;10.82;;;9.73;;
74229;SDS011;62589;12.568;99.958;2023-10-19T10:19:30;12.35;;;10.32;;
74229;SDS011;62589;12.568;99.958;2023-10-19T10:22:03;11.20;;;10.02;;
74229;SDS011;62589;12.568;99.958;2023-10-19T10:24:31;10.95;;;9.85;;
74229;SDS011;62589;12.568;99.958;2023-10-19T10:26:59;10.93;;;9.77;;
74229;SDS011;62589;12.568;99.958;2023-10-19T10:29:30;10.13;;;9.05;;
74229;SDS011;62589;12.568;99.958;2023-10-19T10:32:00;9.85;;;8.85;;
74229;SDS011;62589;12.568;99.958;2023-10-19T10:37:09;10.63;;;9.38;;
74229;SDS011;62589;12.568;99.958;2023-10-19T10:39:37;11.55;;;9.52;;
74229;SDS011;62589;12.568;99.958;2023-10-19T10:42:09;10.02;;;8.82;;
74229;SDS011;62589;12.568;99.958;2023-10-19T10:47:18;14.38;;;9.52;;
74229;SDS011;62589;12.568;99.958;2023-10-19T10:52:30;13.45;;;9.38;;
74229;SDS011;62589;12.568;99.958;2023-10-19T10:54:57;11.63;;;8.95;;
74229;SDS011;62589;12.568;99.958;2023-10-19T10:57:32;12.90;;;9.15;;
74229;SDS011;62589;12.568;99.958;2023-10-19T11:00:03;10.63;;;9.00;;
74229;SDS011;62589;12.568;99.958;2023-10-19T11:02:44;12.27;;;9.18;;
74229;SDS011;62589;12.568;99.958;2023-10-19T11:05:12;15.00;;;9.95;;
74229;SDS011;62589;12.568;99.958;2023-10-19T11:07:40;11.77;;;9.45;;
74229;SDS011;62589;12.568;99.958;2023-10-19T11:10:27;11.70;;;10.20;;
74229;SDS011;62589;12.568;99.958;2023-10-19T11:13:01;12.35;;;9.43;;
74229;SDS011;62589;12.568;99.958;2023-10-19T11:15:35;14.02;;;11.63;;
74229;SDS011;62589;12.568;99.958;2023-10-19T11:18:02;14.18;;;11.15;;
74229;SDS011;62589;12.568;99.958;2023-10-19T11:20:29;15.88;;;10.60;;
74229;SDS011;62589;12.568;99.958;2023-10-19T11:22:56;13.90;;;9.93;;
74229;SDS011;62589;12.568;99.958;2023-10-19T11:25:26;15.32;;;10.55;;
74229;SDS011;62589;12.568;99.958;2023-10-19T11:27:55;11.50;;;9.93;;
74229;SDS011;62589;12.568;99.958;2023-10-19T11:30:22;12.25;;;10.40;;
74229;SDS011;62589;12.568;99.958;2023-10-19T11:32:58;11.98;;;9.65;;
74229;SDS011;62589;12.568;99.958;2023-10-19T11:35:27;11.68;;;9.30;;
74229;SDS011;62589;12.568;99.958;2023-10-19T11:37:56;9.77;;;8.35;;
74229;SDS011;62589;12.568;99.958;2023-10-19T11:40:24;9.65;;;8.65;;
74229;SDS011;62589;12.568;99.958;2023-10-19T11:42:52;9.00;;;8.10;;
74229;SDS011;62589;12.568;99.958;2023-10-19T11:45:24;11.02;;;8.38;;
74229;SDS011;62589;12.568;99.958;2023-10-19T11:47:50;10.20;;;8.40;;
74229;SDS011;62589;12.568;99.958;2023-10-19T11:50:17;10.40;;;8.52;;
74229;SDS011;62589;12.568;99.958;2023-10-19T11:52:45;10.77;;;8.52;;
74229;SDS011;62589;12.568;99.958;2023-10-19T11:55:12;9.50;;;8.02;;
74229;SDS011;62589;12.568;99.958;2023-10-19T11:57:39;9.50;;;8.55;;
74229;SDS011;62589;12.568;99.958;2023-10-19T12:00:09;10.40;;;8.85;;
74229;SDS011;62589;12.568;99.958;2023-10-19T12:02:40;9.13;;;8.20;;
74229;SDS011;62589;12.568;99.958;2023-10-19T12:05:07;11.13;;;8.45;;
74229;SDS011;62589;12.568;99.958;2023-10-19T12:07:36;9.88;;;7.95;;
74229;SDS011;62589;12.568;99.958;2023-10-19T12:10:04;8.45;;;7.35;;
74229;SDS011;62589;12.568;99.958;2023-10-19T12:12:35;9.07;;;8.02;;
74229;SDS011;62589;12.568;99.958;2023-10-19T12:15:05;9.65;;;7.45;;
74229;SDS011;62589;12.568;99.958;2023-10-19T12:17:33;8.30;;;7.38;;
74229;SDS011;62589;12.568;99.958;2023-10-19T12:19:59;8.05;;;7.15;;
74229;SDS011;62589;12.568;99.958;2023-10-19T12:22:26;8.80;;;6.68;;
74229;SDS011;62589;12.568;99.958;2023-10-19T12:25:01;7.35;;;6.53;;
74229;SDS011;62589;12.568;99.958;2023-10-19T12:27:29;8.93;;;6.47;;
74229;SDS011;62589;12.568;99.958;2023-10-19T12:29:56;10.00;;;8.02;;
74229;SDS011;62589;12.568;99.958;2023-10-19T12:32:24;11.40;;;8.70;;
74229;SDS011;62589;12.568;99.958;2023-10-19T12:34:54;9.85;;;8.02;;
74229;SDS011;62589;12.568;99.958;2023-10-19T12:37:23;9.52;;;7.97;;
74229;SDS011;62589;12.568;99.958;2023-10-19T12:39:53;8.93;;;8.02;;
74229;SDS011;62589;12.568;99.958;2023-10-19T12:42:20;9.98;;;7.50;;
74229;SDS011;62589;12.568;99.958;2023-10-19T12:44:48;8.45;;;7.60;;
74229;SDS011;62589;12.568;99.958;2023-10-19T12:47:14;8.55;;;7.65;;
74229;SDS011;62589;12.568;99.958;2023-10-19T12:49:43;9.73;;;7.55;;
74229;SDS011;62589;12.568;99.958;2023-10-19T12:52:13;8.75;;;7.28;;
74229;SDS011;62589;12.568;99.958;2023-10-19T12:54:40;8.32;;;7.50;;
74229;SDS011;62589;12.568;99.958;2023-10-19T12:57:10;10.00;;;7.80;;
74229;SDS011;62589;12.568;99.958;2023-10-19T12:59:37;9.35;;;7.30;;
74229;SDS011;62589;12.568;99.958;2023-10-19T13:02:05;8.77;;;7.43;;
74229;SDS011;62589;12.568;99.958;2023-10-19T13:04:34;8.05;;;7.22;;
74229;SDS011;62589;12.568;99.958;2023-10-19T13:07:02;8.55;;;7.50;;
74229;SDS011;62589;12.568;99.958;2023-10-19T13:09:28;8.18;;;7.38;;
74229;SDS011;62589;12.568;99.958;2023-10-19T13:11:58;9.45;;;7.82;;
74229;SDS011;62589;12.568;99.958;2023-10-19T13:14:26;10.30;;;8.15;;
74229;SDS011;62589;12.568;99.958;2023-10-19T13:16:53;10.98;;;7.75;;
74229;SDS011;62589;12.568;99.958;2023-10-19T13:19:23;10.88;;;7.88;;
74229;SDS011;62589;12.568;99.958;2023-10-19T13:21:52;8.63;;;7.60;;
74229;SDS011;62589;12.568;99.958;2023-10-19T13:24:19;13.25;;;9.13;;
74229;SDS011;62589;12.568;99.958;2023-10-19T13:26:49;15.50;;;9.32;;
74229;SDS011;62589;12.568;99.958;2023-10-19T13:29:16;18.23;;;10.13;;
74229;SDS011;62589;12.568;99.958;2023-10-19T13:31:44;14.25;;;9.85;;
74229;SDS011;62589;12.568;99.958;2023-10-19T13:34:16;15.05;;;10.55;;
74229;SDS011;62589;12.568;99.958;2023-10-19T13:36:43;13.15;;;10.10;;
74229;SDS011;62589;12.568;99.958;2023-10-19T13:39:12;12.88;;;10.38;;
74229;SDS011;62589;12.568;99.958;2023-10-19T13:41:42;14.73;;;11.15;;
74229;SDS011;62589;12.568;99.958;2023-10-19T13:44:09;15.48;;;12.02;;
74229;SDS011;62589;12.568;99.958;2023-10-19T13:46:37;13.80;;;11.25;;
74229;SDS011;62589;12.568;99.958;2023-10-19T13:49:03;15.25;;;11.52;;
74229;SDS011;62589;12.568;99.958;2023-10-19T13:51:31;15.63;;;12.02;;
74229;SDS011;62589;12.568;99.958;2023-10-19T13:53:58;16.15;;;12.05;;
74229;SDS011;62589;12.568;99.958;2023-10-19T13:56:25;16.13;;;11.93;;
74229;SDS011;62589;12.568;99.958;2023-10-19T13:58:51;18.30;;;13.18;;
74229;SDS011;62589;12.568;99.958;2023-10-19T14:01:18;15.40;;;11.63;;
74229;SDS011;62589;12.568;99.958;2023-10-19T14:03:46;13.52;;;11.25;;
74229;SDS011;62589;12.568;99.958;2023-10-19T14:06:13;15.00;;;11.45;;
74229;SDS011;62589;12.568;99.958;2023-10-19T14:08:41;17.10;;;12.48;;
74229;SDS011;62589;12.568;99.958;2023-10-19T14:11:08;15.02;;;12.13;;
74229;SDS011;62589;12.568;99.958;2023-10-19T14:13:34;13.65;;;11.30;;
74229;SDS011;62589;12.568;99.958;2023-10-19T14:16:10;14.05;;;11.52;;
74229;SDS011;62589;12.568;99.958;2023-10-19T14:18:36;16.60;;;11.98;;
74229;SDS011;62589;12.568;99.958;2023-10-19T14:21:16;16.10;;;11.82;;
74229;SDS011;62589;12.568;99.958;2023-10-19T14:23:45;14.00;;;11.10;;
74229;SDS011;62589;12.568;99.958;2023-10-19T14:26:13;16.08;;;11.60;;
74229;SDS011;62589;12.568;99.958;2023-10-19T14:28:39;17.77;;;11.52;;
74229;SDS011;62589;12.568;99.958;2023-10-19T14:31:06;14.18;;;12.30;;
74229;SDS011;62589;12.568;99.958;2023-10-19T14:33:37;14.20;;;11.90;;
74229;SDS011;62589;12.568;99.958;2023-10-19T14:36:04;15.20;;;11.85;;
74229;SDS011;62589;12.568;99.958;2023-10-19T14:38:30;17.30;;;12.60;;
74229;SDS011;62589;12.568;99.958;2023-10-19T14:40:58;13.57;;;11.30;;
74229;SDS011;62589;12.568;99.958;2023-10-19T14:43:24;12.27;;;10.85;;
74229;SDS011;62589;12.568;99.958;2023-10-19T14:45:51;14.98;;;11.23;;
74229;SDS011;62589;12.568;99.958;2023-10-19T14:48:17;14.40;;;11.50;;